Saint-Malachie, Canada
Current Conditions -  °F | °C
As of 10:00 PM on Wednesday 22 Oct 2014 (Local Time) from CYQB Reporting Station
Few Clouds Few Clouds  
Wind Chill: 37°   Ceiling: Unl
Heat Index: 45°   Visibility: 15mi
Dew Point: 30°   Wind: 16mph
Humidity: 57%   Direction: 60°ENE
Pressure: 30.3"   Gusts: 24mph
Location:  46.53°N, 70.77°W
Report Text: CYQB 230200Z 06014G21KT 15SM FEW220 07/M01 A3030 RMK CI2 SLP264
Loading
Personal Weather Stations






























Interactive Weather Map
Tropical Storm Tracking
New forecast layout! Learn more

10-Day Weather Forecast

Advertisements
Track Severe Weather on mobile